createdAt,value
2023-03-27T00:01:30.773Z,17.45
2023-03-27T00:04:02.296Z,17.24
2023-03-27T00:06:34.577Z,17.16
2023-03-27T00:09:04.013Z,17.17
2023-03-27T00:11:33.217Z,17.32
2023-03-27T00:14:04.470Z,17.30
2023-03-27T00:16:32.935Z,17.24
2023-03-27T00:19:01.233Z,17.38
2023-03-27T00:21:35.430Z,17.48
2023-03-27T00:24:04.014Z,17.62
2023-03-27T00:26:32.599Z,17.67
2023-03-27T00:29:04.498Z,17.57
2023-03-27T00:31:36.463Z,17.77
2023-03-27T00:34:04.568Z,17.86
2023-03-27T00:36:34.140Z,17.69
2023-03-27T00:39:02.454Z,17.67
2023-03-27T00:41:31.168Z,17.82
2023-03-27T00:43:59.665Z,17.48
2023-03-27T00:46:44.067Z,17.49
2023-03-27T00:49:12.358Z,17.51
2023-03-27T00:51:41.756Z,17.48
2023-03-27T00:54:10.976Z,17.14
2023-03-27T00:56:40.273Z,17.25
2023-03-27T00:59:10.859Z,17.25
2023-03-27T01:01:40.035Z,17.28
2023-03-27T01:04:09.221Z,17.13
2023-03-27T01:06:37.779Z,17.16
2023-03-27T01:09:09.412Z,17.19
2023-03-27T01:11:54.504Z,17.32
2023-03-27T01:14:37.691Z,17.46
2023-03-27T01:17:30.921Z,17.56
2023-03-27T01:20:27.521Z,17.48
2023-03-27T01:23:35.923Z,17.49
2023-03-27T01:26:14.906Z,17.44
2023-03-27T01:29:18.217Z,17.38
2023-03-27T01:31:58.621Z,17.05
2023-03-27T01:34:41.269Z,16.67
2023-03-27T01:37:47.883Z,16.96
2023-03-27T01:40:25.426Z,17.42
2023-03-27T01:43:04.465Z,17.32
2023-03-27T01:45:42.836Z,17.29
2023-03-27T01:48:14.345Z,17.21
2023-03-27T01:50:48.690Z,17.12
2023-03-27T01:53:34.281Z,17.18
2023-03-27T01:56:13.741Z,17.11
2023-03-27T01:58:46.670Z,16.13
2023-03-27T02:01:18.266Z,16.35
2023-03-27T02:03:53.050Z,16.63
2023-03-27T02:06:24.003Z,16.59
2023-03-27T02:09:18.122Z,16.50
2023-03-27T02:11:57.595Z,16.65
2023-03-27T02:14:31.181Z,16.82
2023-03-27T02:17:02.190Z,16.56
2023-03-27T02:19:35.225Z,16.57
2023-03-27T02:22:03.710Z,16.69
2023-03-27T02:24:43.554Z,16.85
2023-03-27T02:27:21.335Z,16.77
2023-03-27T02:30:10.494Z,16.84
2023-03-27T02:33:17.281Z,16.87
2023-03-27T02:35:52.106Z,16.78
2023-03-27T02:38:38.612Z,16.82
2023-03-27T02:41:41.198Z,16.77
2023-03-27T02:44:52.615Z,16.88
2023-03-27T02:47:29.055Z,16.90
2023-03-27T02:50:05.540Z,16.59
2023-03-27T02:52:42.753Z,16.65
2023-03-27T02:55:34.347Z,16.03
2023-03-27T02:58:05.607Z,15.39
2023-03-27T03:00:52.339Z,15.51
2023-03-27T03:04:04.216Z,15.69
2023-03-27T03:06:45.582Z,15.63
2023-03-27T03:09:15.101Z,15.61
2023-03-27T03:11:48.993Z,15.67
2023-03-27T03:14:21.406Z,15.87
2023-03-27T03:16:49.571Z,16.00
2023-03-27T03:19:25.293Z,15.94
2023-03-27T03:21:54.413Z,15.98
2023-03-27T03:24:22.661Z,15.75
2023-03-27T03:26:54.400Z,15.51
2023-03-27T03:29:22.490Z,15.58
2023-03-27T03:32:01.526Z,15.33
2023-03-27T03:34:30.739Z,15.42
2023-03-27T03:36:59.802Z,15.57
2023-03-27T03:39:33.240Z,15.91
2023-03-27T03:42:02.792Z,16.31
2023-03-27T03:44:31.693Z,16.28
2023-03-27T03:47:01.648Z,15.94
2023-03-27T03:49:30.027Z,16.04
2023-03-27T03:52:03.545Z,16.09
2023-03-27T03:54:33.861Z,16.10
2023-03-27T03:57:03.309Z,16.26
2023-03-27T03:59:32.714Z,16.16
2023-03-27T04:02:29.776Z,16.16
2023-03-27T04:05:12.653Z,15.96
2023-03-27T04:07:42.502Z,15.76
2023-03-27T04:10:41.689Z,15.90
2023-03-27T04:13:21.278Z,15.82
2023-03-27T04:16:15.760Z,15.58
2023-03-27T04:18:55.546Z,15.38
2023-03-27T04:21:26.959Z,15.51
2023-03-27T04:24:02.370Z,15.52
2023-03-27T04:26:43.513Z,15.46
2023-03-27T04:29:32.074Z,15.48
2023-03-27T04:32:00.178Z,15.52
2023-03-27T04:34:49.303Z,16.21
2023-03-27T04:37:29.056Z,17.35
2023-03-27T04:40:05.714Z,18.38
2023-03-27T04:42:42.644Z,19.73
2023-03-27T04:45:13.139Z,20.80
2023-03-27T04:47:46.581Z,21.68
2023-03-27T04:50:15.487Z,22.34
2023-03-27T04:52:44.065Z,23.13
2023-03-27T04:55:12.543Z,23.86
2023-03-27T04:57:46.329Z,24.53
2023-03-27T05:00:19.767Z,25.13
2023-03-27T05:02:48.701Z,25.56
2023-03-27T05:05:22.440Z,25.41
2023-03-27T05:08:30.080Z,21.85
2023-03-27T05:10:58.751Z,23.95
2023-03-27T05:13:30.677Z,24.83
2023-03-27T05:16:01.909Z,25.30
2023-03-27T05:18:32.039Z,25.46
2023-03-27T05:21:06.036Z,25.97
2023-03-27T05:23:35.004Z,26.43
2023-03-27T05:26:03.597Z,27.06
2023-03-27T05:28:48.940Z,27.54
2023-03-27T05:31:17.373Z,28.14
2023-03-27T05:33:54.973Z,28.50
2023-03-27T05:36:23.306Z,29.11
2023-03-27T05:38:53.276Z,29.56
2023-03-27T05:41:43.370Z,29.97
2023-03-27T05:44:12.335Z,30.25
2023-03-27T05:46:43.027Z,30.13
2023-03-27T05:49:20.340Z,29.75
2023-03-27T05:51:52.730Z,29.36
2023-03-27T05:54:22.547Z,29.00
2023-03-27T05:57:10.925Z,28.75
2023-03-27T05:59:43.771Z,28.75
2023-03-27T06:02:21.325Z,28.79
2023-03-27T06:05:04.591Z,29.35
2023-03-27T06:07:42.988Z,29.67
2023-03-27T06:10:13.852Z,29.93
2023-03-27T06:13:08.906Z,30.34
2023-03-27T06:15:46.909Z,30.77
2023-03-27T06:18:38.477Z,31.12
2023-03-27T06:21:08.987Z,31.15
2023-03-27T06:23:37.896Z,31.00
2023-03-27T06:26:11.324Z,31.40
2023-03-27T06:28:42.554Z,31.62
2023-03-27T06:31:12.099Z,31.43
2023-03-27T06:33:48.994Z,31.54
2023-03-27T06:36:38.045Z,31.75
2023-03-27T06:39:08.417Z,31.88
2023-03-27T06:41:36.817Z,31.42
2023-03-27T06:44:07.987Z,31.69
2023-03-27T06:46:48.730Z,31.94
2023-03-27T06:49:36.142Z,32.17
2023-03-27T06:52:12.121Z,32.44
2023-03-27T06:54:40.875Z,32.61
2023-03-27T06:57:08.940Z,32.77
2023-03-27T06:59:58.836Z,32.88
2023-03-27T07:02:45.007Z,32.77
2023-03-27T07:05:40.745Z,32.68
2023-03-27T07:10:56.278Z,32.16
2023-03-27T07:13:35.886Z,32.34
2023-03-27T07:16:07.054Z,32.44
2023-03-27T07:18:36.257Z,32.43
2023-03-27T07:21:06.057Z,32.24
2023-03-27T07:23:34.282Z,32.01
2023-03-27T07:26:05.090Z,31.93
2023-03-27T07:28:52.138Z,31.58
2023-03-27T07:31:36.500Z,31.11
2023-03-27T07:34:09.450Z,31.53
2023-03-27T07:37:09.737Z,32.28
2023-03-27T07:39:41.955Z,33.26
2023-03-27T07:42:10.314Z,33.91
2023-03-27T07:44:53.404Z,34.16
2023-03-27T07:47:21.428Z,34.26
2023-03-27T07:49:49.497Z,34.84
2023-03-27T07:52:18.323Z,34.91
2023-03-27T07:54:52.200Z,34.51
2023-03-27T07:57:23.377Z,34.73
2023-03-27T07:59:57.468Z,35.00
2023-03-27T08:02:45.766Z,35.29
2023-03-27T08:05:14.521Z,35.19
2023-03-27T08:07:48.243Z,34.87
2023-03-27T08:10:27.856Z,34.72
2023-03-27T08:13:01.624Z,34.62
2023-03-27T08:15:29.867Z,34.59
2023-03-27T08:17:59.942Z,34.86
2023-03-27T08:20:30.683Z,35.20
2023-03-27T08:23:00.868Z,34.97
2023-03-27T08:25:33.360Z,35.03
2023-03-27T08:28:03.000Z,35.16
2023-03-27T08:30:31.796Z,34.84
2023-03-27T08:33:00.589Z,35.04
2023-03-27T08:35:28.931Z,34.62
2023-03-27T08:37:57.578Z,34.31
2023-03-27T08:40:58.902Z,33.96
2023-03-27T08:43:43.036Z,33.76
2023-03-27T08:46:24.222Z,33.20
2023-03-27T08:48:57.810Z,32.79
2023-03-27T08:51:47.784Z,31.70
2023-03-27T08:54:19.115Z,31.21
2023-03-27T08:56:49.033Z,30.98
2023-03-27T08:59:19.936Z,31.29
2023-03-27T09:02:07.181Z,31.61
2023-03-27T09:04:38.794Z,32.74
2023-03-27T09:07:14.031Z,33.00
2023-03-27T09:10:10.197Z,33.16
2023-03-27T09:13:07.811Z,33.87
2023-03-27T09:15:58.508Z,34.30
2023-03-27T09:18:28.074Z,33.50
2023-03-27T09:20:59.201Z,32.76
2023-03-27T09:23:31.888Z,32.41
2023-03-27T09:26:23.768Z,32.74
2023-03-27T09:29:05.663Z,33.53
2023-03-27T09:31:47.041Z,34.40
2023-03-27T09:34:17.976Z,34.23
2023-03-27T09:36:49.769Z,34.45
2023-03-27T09:39:22.876Z,33.84
2023-03-27T09:41:58.668Z,32.59
2023-03-27T09:44:37.006Z,32.66
2023-03-27T09:47:09.557Z,33.15
2023-03-27T09:49:38.721Z,33.76
2023-03-27T09:52:08.808Z,33.21
2023-03-27T09:54:52.890Z,33.76
2023-03-27T09:57:22.652Z,34.03
2023-03-27T10:00:20.679Z,34.04
2023-03-27T10:03:08.127Z,34.82
2023-03-27T10:05:38.958Z,35.24
2023-03-27T10:08:31.444Z,35.30
2023-03-27T10:11:08.839Z,35.01
2023-03-27T10:13:57.619Z,34.56
2023-03-27T10:16:28.010Z,34.50
2023-03-27T10:19:06.711Z,34.55
2023-03-27T10:21:42.766Z,34.18
2023-03-27T10:24:31.765Z,33.33
2023-03-27T10:27:24.921Z,32.73
2023-03-27T10:30:28.208Z,31.67
2023-03-27T10:33:02.476Z,31.86
2023-03-27T10:35:51.126Z,32.41
2023-03-27T10:38:25.265Z,32.00
2023-03-27T10:41:28.760Z,31.54
2023-03-27T10:43:58.824Z,30.56
2023-03-27T10:46:28.777Z,30.59
2023-03-27T10:49:12.678Z,30.96
2023-03-27T10:51:47.562Z,30.29
2023-03-27T10:54:38.023Z,29.39
2023-03-27T10:57:10.900Z,29.12
2023-03-27T10:59:50.779Z,29.21
2023-03-27T11:02:43.805Z,28.81
2023-03-27T11:05:18.890Z,28.82
2023-03-27T11:07:57.267Z,29.28
2023-03-27T11:10:42.384Z,29.62
2023-03-27T11:13:15.436Z,30.02
2023-03-27T11:15:59.640Z,29.91
2023-03-27T11:19:03.342Z,30.30
2023-03-27T11:21:39.186Z,30.70
2023-03-27T11:24:15.384Z,30.40
2023-03-27T11:27:11.021Z,30.35
2023-03-27T11:29:47.558Z,30.61
2023-03-27T11:32:23.459Z,30.89
2023-03-27T11:35:04.247Z,30.67
2023-03-27T11:37:47.204Z,30.70
2023-03-27T11:40:20.202Z,29.99
2023-03-27T11:42:49.033Z,29.62
2023-03-27T11:45:19.211Z,30.34
2023-03-27T11:48:09.367Z,29.62
2023-03-27T11:50:53.292Z,29.65
2023-03-27T11:53:39.905Z,30.08
2023-03-27T11:56:32.807Z,30.24
2023-03-27T11:59:29.611Z,28.63
2023-03-27T12:02:34.510Z,28.65
2023-03-27T12:05:17.238Z,28.55
2023-03-27T12:08:07.264Z,29.32
2023-03-27T12:10:38.769Z,29.89
2023-03-27T12:13:40.664Z,29.43
2023-03-27T12:16:23.199Z,28.97
2023-03-27T12:19:28.945Z,29.14
2023-03-27T12:22:52.864Z,29.42
2023-03-27T12:25:45.409Z,29.13
2023-03-27T12:28:35.093Z,28.81
2023-03-27T12:31:49.556Z,28.52
2023-03-27T12:34:42.203Z,28.66
2023-03-27T12:37:12.300Z,29.19
2023-03-27T12:40:29.103Z,29.03
2023-03-27T12:43:17.946Z,29.81
2023-03-27T12:46:16.138Z,29.75
2023-03-27T12:48:52.818Z,29.55
2023-03-27T12:51:35.740Z,28.77
2023-03-27T12:54:28.868Z,29.32
2023-03-27T12:56:58.751Z,29.39
2023-03-27T12:59:29.512Z,29.33
2023-03-27T13:02:04.063Z,29.36
2023-03-27T13:05:10.719Z,29.18
2023-03-27T13:07:53.493Z,28.82
2023-03-27T13:11:04.498Z,28.80
2023-03-27T13:14:02.837Z,28.49
2023-03-27T13:16:41.126Z,29.01
2023-03-27T13:19:37.411Z,28.95
2023-03-27T13:22:43.628Z,28.93
2023-03-27T13:25:31.798Z,28.80
2023-03-27T13:28:35.595Z,29.00
2023-03-27T13:31:47.169Z,29.29
2023-03-27T13:34:27.650Z,29.15
2023-03-27T13:37:11.363Z,29.35
2023-03-27T13:40:01.620Z,28.35
2023-03-27T13:42:39.112Z,28.38
2023-03-27T13:45:20.577Z,28.71
2023-03-27T13:48:26.551Z,29.28
2023-03-27T13:51:17.998Z,29.39
2023-03-27T13:54:08.529Z,29.69
2023-03-27T13:56:56.092Z,29.62
2023-03-27T14:00:37.644Z,29.53
2023-03-27T14:03:21.648Z,29.40
2023-03-27T14:06:05.196Z,28.71
2023-03-27T14:09:02.175Z,29.35
2023-03-27T14:12:19.105Z,29.09
2023-03-27T14:15:19.198Z,28.98
2023-03-27T14:18:00.511Z,29.11
2023-03-27T14:20:40.595Z,29.13
2023-03-27T14:23:26.532Z,28.96
2023-03-27T14:26:20.553Z,29.76
2023-03-27T14:28:51.718Z,29.65
2023-03-27T14:31:28.991Z,29.40
2023-03-27T14:34:25.009Z,29.10
2023-03-27T14:37:39.041Z,29.00
2023-03-27T14:40:33.478Z,29.33
2023-03-27T14:43:03.634Z,28.63
2023-03-27T14:45:35.759Z,28.91
2023-03-27T14:48:10.039Z,29.38
2023-03-27T14:50:47.828Z,29.18
2023-03-27T14:53:18.541Z,29.26
2023-03-27T14:56:37.068Z,29.35
2023-03-27T14:59:28.227Z,29.47
2023-03-27T15:02:00.054Z,29.43
2023-03-27T15:04:30.103Z,29.35
2023-03-27T15:07:18.869Z,29.35
2023-03-27T15:10:07.665Z,29.19
2023-03-27T15:12:58.496Z,28.86
2023-03-27T15:15:43.009Z,28.47
2023-03-27T15:18:33.102Z,28.64
2023-03-27T15:21:04.385Z,28.72
2023-03-27T15:23:45.014Z,28.53
2023-03-27T15:26:27.325Z,28.28
2023-03-27T15:29:01.781Z,28.53
2023-03-27T15:31:30.946Z,28.25
2023-03-27T15:34:06.187Z,28.39
2023-03-27T15:36:35.176Z,28.39
2023-03-27T15:39:05.136Z,28.42
2023-03-27T15:41:33.807Z,28.26
2023-03-27T15:44:13.141Z,28.16
2023-03-27T15:47:01.155Z,28.33
2023-03-27T15:49:37.006Z,28.22
2023-03-27T15:52:30.243Z,28.32
2023-03-27T15:54:59.387Z,28.15
2023-03-27T15:57:29.606Z,28.14
2023-03-27T16:00:02.871Z,27.90
2023-03-27T16:02:47.197Z,27.73
2023-03-27T16:05:16.319Z,27.55
2023-03-27T16:07:47.238Z,27.50
2023-03-27T16:10:29.408Z,27.86
2023-03-27T16:13:02.755Z,28.10
2023-03-27T16:15:34.788Z,27.90
2023-03-27T16:18:13.575Z,28.19
2023-03-27T16:20:42.150Z,28.12
2023-03-27T16:23:10.301Z,28.11
2023-03-27T16:25:38.266Z,27.80
2023-03-27T16:28:07.493Z,27.88
2023-03-27T16:30:38.914Z,27.48
2023-03-27T16:33:15.993Z,27.38
2023-03-27T16:35:45.458Z,28.10
2023-03-27T16:38:14.117Z,28.08
2023-03-27T16:40:43.529Z,28.04
2023-03-27T16:43:11.910Z,28.11
2023-03-27T16:45:41.149Z,27.86
2023-03-27T16:48:10.277Z,27.82
2023-03-27T16:50:38.389Z,27.90
2023-03-27T16:53:06.978Z,27.91
2023-03-27T16:55:34.893Z,27.77
2023-03-27T16:58:03.648Z,27.77
2023-03-27T17:00:31.913Z,28.06
2023-03-27T17:03:19.970Z,27.74
2023-03-27T17:05:48.277Z,27.72
2023-03-27T17:08:18.540Z,27.99
2023-03-27T17:10:47.824Z,27.89
2023-03-27T17:13:18.045Z,27.68
2023-03-27T17:15:51.299Z,27.66
2023-03-27T17:18:20.665Z,27.66
2023-03-27T17:20:48.804Z,27.22
2023-03-27T17:25:59.134Z,24.09
2023-03-27T17:28:28.247Z,26.04
2023-03-27T17:31:03.994Z,26.40
2023-03-27T17:33:32.802Z,26.29
2023-03-27T17:36:00.236Z,26.04
2023-03-27T17:38:27.860Z,26.04
2023-03-27T17:40:54.684Z,26.14
2023-03-27T17:43:21.269Z,26.17
2023-03-27T17:45:48.952Z,26.56
2023-03-27T17:48:16.394Z,26.34
2023-03-27T17:50:49.831Z,26.03
2023-03-27T17:53:27.043Z,26.39
2023-03-27T17:55:53.522Z,26.61
2023-03-27T17:58:21.701Z,26.59
2023-03-27T18:00:48.577Z,26.33
2023-03-27T18:03:16.091Z,26.44
2023-03-27T18:05:43.137Z,26.32
2023-03-27T18:08:11.743Z,26.43
2023-03-27T18:10:44.386Z,26.15
2023-03-27T18:13:11.949Z,25.76
2023-03-27T18:15:40.063Z,25.97
2023-03-27T18:18:07.302Z,26.07
2023-03-27T18:20:34.021Z,26.22
2023-03-27T18:23:00.839Z,25.96
2023-03-27T18:25:27.685Z,26.41
2023-03-27T18:27:54.185Z,25.86
2023-03-27T18:30:23.249Z,26.29
2023-03-27T18:32:50.054Z,26.45
2023-03-27T18:35:18.867Z,26.30
2023-03-27T18:37:46.198Z,26.34
2023-03-27T18:40:17.733Z,26.56
2023-03-27T18:43:04.184Z,26.46
2023-03-27T18:45:31.703Z,26.11
2023-03-27T18:47:58.727Z,26.14
2023-03-27T18:50:33.030Z,26.25
2023-03-27T18:53:00.988Z,26.25
2023-03-27T18:55:27.729Z,26.34
2023-03-27T18:57:54.463Z,26.15
2023-03-27T19:00:21.528Z,25.91
2023-03-27T19:02:55.904Z,26.07
2023-03-27T19:05:22.492Z,25.74
2023-03-27T19:07:49.240Z,26.08
2023-03-27T19:10:17.523Z,25.57
2023-03-27T19:12:49.082Z,25.55
2023-03-27T19:15:34.640Z,25.46
2023-03-27T19:18:27.777Z,26.08
2023-03-27T19:21:18.282Z,25.54
2023-03-27T19:24:02.149Z,25.23
2023-03-27T19:26:36.662Z,25.45
2023-03-27T19:29:04.311Z,26.01
2023-03-27T19:31:30.918Z,25.80
2023-03-27T19:33:58.234Z,25.82
2023-03-27T19:36:26.521Z,26.32
2023-03-27T19:38:53.454Z,25.90
2023-03-27T19:41:23.493Z,25.77
2023-03-27T19:43:51.149Z,25.56
2023-03-27T19:46:17.938Z,26.18
2023-03-27T19:48:46.773Z,25.97
2023-03-27T19:51:22.267Z,25.81
2023-03-27T19:53:54.790Z,25.90
2023-03-27T19:56:24.627Z,26.25
2023-03-27T19:58:51.728Z,26.14
2023-03-27T20:01:21.555Z,25.81
2023-03-27T20:03:48.632Z,25.77
2023-03-27T20:06:18.975Z,25.57
2023-03-27T20:08:45.656Z,25.54
2023-03-27T20:11:14.132Z,25.79
2023-03-27T20:13:53.151Z,25.76
2023-03-27T20:16:25.491Z,25.55
2023-03-27T20:19:02.599Z,25.88
2023-03-27T20:21:33.265Z,25.87
2023-03-27T20:24:00.664Z,26.09
2023-03-27T20:26:38.168Z,25.52
2023-03-27T20:29:12.366Z,25.67
2023-03-27T20:31:40.168Z,25.92
2023-03-27T20:34:06.912Z,26.19
2023-03-27T20:36:34.236Z,26.09
2023-03-27T20:39:06.466Z,25.89
2023-03-27T20:41:38.073Z,26.18
2023-03-27T20:44:14.437Z,26.11
2023-03-27T20:46:46.569Z,25.98
2023-03-27T20:49:33.520Z,25.81
2023-03-27T20:52:09.731Z,25.66
2023-03-27T20:54:36.288Z,25.87
2023-03-27T20:57:03.564Z,26.21
2023-03-27T20:59:30.808Z,26.19
2023-03-27T21:01:59.868Z,25.94
2023-03-27T21:04:28.995Z,25.96
2023-03-27T21:06:55.959Z,25.95
2023-03-27T21:09:25.423Z,25.96
2023-03-27T21:11:54.536Z,26.25
2023-03-27T21:14:21.395Z,26.22
2023-03-27T21:16:49.044Z,26.19
2023-03-27T21:19:16.434Z,26.00
2023-03-27T21:21:43.184Z,26.07
2023-03-27T21:24:09.953Z,26.19
2023-03-27T21:26:37.509Z,26.13
2023-03-27T21:29:10.536Z,26.24
2023-03-27T21:31:39.344Z,26.40
2023-03-27T21:34:06.229Z,26.34
2023-03-27T21:36:34.960Z,26.15
2023-03-27T21:39:02.137Z,26.61
2023-03-27T21:41:28.973Z,26.62
2023-03-27T21:43:55.648Z,26.21
2023-03-27T21:46:22.494Z,26.22
2023-03-27T21:48:49.473Z,26.24
2023-03-27T21:51:16.175Z,25.78
2023-03-27T21:53:42.767Z,25.92
2023-03-27T21:56:10.274Z,26.30
2023-03-27T21:58:37.295Z,26.30
2023-03-27T22:01:06.418Z,26.36
2023-03-27T22:03:34.307Z,26.01
2023-03-27T22:06:11.763Z,25.97
2023-03-27T22:08:40.196Z,25.45
2023-03-27T22:11:07.175Z,25.94
2023-03-27T22:13:37.127Z,25.90
2023-03-27T22:16:13.085Z,25.79
2023-03-27T22:18:41.974Z,26.01
2023-03-27T22:21:21.499Z,26.12
2023-03-27T22:23:52.943Z,25.93
2023-03-27T22:26:20.641Z,26.54
2023-03-27T22:28:49.199Z,26.03
2023-03-27T22:31:16.938Z,26.09
2023-03-27T22:33:46.368Z,25.94
2023-03-27T22:36:15.261Z,26.28
2023-03-27T22:38:42.629Z,26.11
2023-03-27T22:41:11.193Z,25.50
2023-03-27T22:43:39.784Z,24.99
2023-03-27T22:46:13.996Z,24.85
2023-03-27T22:48:43.100Z,25.21
2023-03-27T22:51:10.412Z,25.58
2023-03-27T22:53:37.397Z,25.13
2023-03-27T22:56:05.171Z,25.12
2023-03-27T22:58:32.763Z,24.82
2023-03-27T23:00:59.875Z,24.87
2023-03-27T23:03:27.247Z,24.83
2023-03-27T23:05:54.774Z,25.09
2023-03-27T23:08:23.882Z,25.20
2023-03-27T23:11:01.257Z,25.58
2023-03-27T23:13:33.532Z,25.39
2023-03-27T23:16:02.740Z,25.55
2023-03-27T23:18:30.127Z,25.44
2023-03-27T23:21:00.281Z,25.68
2023-03-27T23:23:28.092Z,25.26
2023-03-27T23:25:54.956Z,25.50
2023-03-27T23:28:23.570Z,25.42
2023-03-27T23:30:54.157Z,25.18
2023-03-27T23:33:36.697Z,25.31
2023-03-27T23:36:23.362Z,25.23
2023-03-27T23:38:52.616Z,25.04
2023-03-27T23:41:19.929Z,25.02
2023-03-27T23:43:46.632Z,25.21
2023-03-27T23:46:13.730Z,25.41
2023-03-27T23:48:41.849Z,25.37
2023-03-27T23:51:11.879Z,25.45
2023-03-27T23:53:42.104Z,25.35
2023-03-27T23:56:09.360Z,25.14
2023-03-27T23:58:36.512Z,25.02
